sensor_id;sensor_type;location;lat;lon;timestamp;P1;durP1;ratioP1;P2;durP2;ratioP2
16310;SDS011;8264;48.510;8.872;2023-02-26T00:00:47;3.67;;;1.58;;
16310;SDS011;8264;48.510;8.872;2023-02-26T00:03:13;2.07;;;1.60;;
16310;SDS011;8264;48.510;8.872;2023-02-26T00:05:41;2.63;;;1.67;;
16310;SDS011;8264;48.510;8.872;2023-02-26T00:08:08;2.80;;;1.50;;
16310;SDS011;8264;48.510;8.872;2023-02-26T00:10:34;6.63;;;1.90;;
16310;SDS011;8264;48.510;8.872;2023-02-26T00:13:01;3.37;;;1.90;;
16310;SDS011;8264;48.510;8.872;2023-02-26T00:15:28;4.38;;;1.80;;
16310;SDS011;8264;48.510;8.872;2023-02-26T00:17:56;2.58;;;1.70;;
16310;SDS011;8264;48.510;8.872;2023-02-26T00:20:26;3.75;;;2.17;;
16310;SDS011;8264;48.510;8.872;2023-02-26T00:22:54;4.22;;;1.88;;
16310;SDS011;8264;48.510;8.872;2023-02-26T00:25:21;1.52;;;1.35;;
16310;SDS011;8264;48.510;8.872;2023-02-26T00:27:48;4.60;;;1.63;;
16310;SDS011;8264;48.510;8.872;2023-02-26T00:30:15;2.88;;;1.80;;
16310;SDS011;8264;48.510;8.872;2023-02-26T00:32:42;4.75;;;1.77;;
16310;SDS011;8264;48.510;8.872;2023-02-26T00:35:11;2.92;;;1.92;;
16310;SDS011;8264;48.510;8.872;2023-02-26T00:37:47;2.80;;;1.90;;
16310;SDS011;8264;48.510;8.872;2023-02-26T00:40:24;5.70;;;2.47;;
16310;SDS011;8264;48.510;8.872;2023-02-26T00:42:55;2.40;;;1.65;;
16310;SDS011;8264;48.510;8.872;2023-02-26T00:45:22;5.93;;;1.92;;
16310;SDS011;8264;48.510;8.872;2023-02-26T00:47:50;3.88;;;1.85;;
16310;SDS011;8264;48.510;8.872;2023-02-26T00:50:20;2.38;;;1.80;;
16310;SDS011;8264;48.510;8.872;2023-02-26T00:52:53;5.45;;;1.90;;
16310;SDS011;8264;48.510;8.872;2023-02-26T00:55:26;5.38;;;2.10;;
16310;SDS011;8264;48.510;8.872;2023-02-26T00:57:52;4.97;;;2.08;;
16310;SDS011;8264;48.510;8.872;2023-02-26T01:00:19;3.10;;;2.00;;
16310;SDS011;8264;48.510;8.872;2023-02-26T01:02:46;5.93;;;2.38;;
16310;SDS011;8264;48.510;8.872;2023-02-26T01:05:14;2.53;;;1.73;;
16310;SDS011;8264;48.510;8.872;2023-02-26T01:07:43;2.95;;;1.95;;
16310;SDS011;8264;48.510;8.872;2023-02-26T01:10:13;3.13;;;1.75;;
16310;SDS011;8264;48.510;8.872;2023-02-26T01:12:41;3.80;;;2.45;;
16310;SDS011;8264;48.510;8.872;2023-02-26T01:15:09;4.13;;;1.98;;
16310;SDS011;8264;48.510;8.872;2023-02-26T01:17:38;4.57;;;1.60;;
16310;SDS011;8264;48.510;8.872;2023-02-26T01:20:08;5.13;;;1.98;;
16310;SDS011;8264;48.510;8.872;2023-02-26T01:22:37;4.07;;;1.90;;
16310;SDS011;8264;48.510;8.872;2023-02-26T01:25:06;7.35;;;1.90;;
16310;SDS011;8264;48.510;8.872;2023-02-26T01:27:34;3.53;;;1.70;;
16310;SDS011;8264;48.510;8.872;2023-02-26T01:30:03;3.83;;;2.00;;
16310;SDS011;8264;48.510;8.872;2023-02-26T01:32:34;3.40;;;1.98;;
16310;SDS011;8264;48.510;8.872;2023-02-26T01:35:07;2.30;;;1.75;;
16310;SDS011;8264;48.510;8.872;2023-02-26T01:37:39;2.13;;;1.40;;
16310;SDS011;8264;48.510;8.872;2023-02-26T01:40:21;4.60;;;1.58;;
16310;SDS011;8264;48.510;8.872;2023-02-26T01:43:01;4.55;;;2.25;;
16310;SDS011;8264;48.510;8.872;2023-02-26T01:45:32;2.50;;;1.65;;
16310;SDS011;8264;48.510;8.872;2023-02-26T01:48:01;4.88;;;1.90;;
16310;SDS011;8264;48.510;8.872;2023-02-26T01:50:31;4.35;;;1.88;;
16310;SDS011;8264;48.510;8.872;2023-02-26T01:53:16;4.15;;;2.03;;
16310;SDS011;8264;48.510;8.872;2023-02-26T01:55:46;4.28;;;2.28;;
16310;SDS011;8264;48.510;8.872;2023-02-26T01:58:14;2.97;;;2.00;;
16310;SDS011;8264;48.510;8.872;2023-02-26T02:00:42;3.33;;;2.20;;
16310;SDS011;8264;48.510;8.872;2023-02-26T02:03:09;4.88;;;1.92;;
16310;SDS011;8264;48.510;8.872;2023-02-26T02:05:38;6.25;;;1.98;;
16310;SDS011;8264;48.510;8.872;2023-02-26T02:08:07;3.97;;;1.90;;
16310;SDS011;8264;48.510;8.872;2023-02-26T02:10:35;5.35;;;2.10;;
16310;SDS011;8264;48.510;8.872;2023-02-26T02:13:09;1.98;;;1.60;;
16310;SDS011;8264;48.510;8.872;2023-02-26T02:15:42;3.67;;;1.88;;
16310;SDS011;8264;48.510;8.872;2023-02-26T02:18:15;2.97;;;1.92;;
16310;SDS011;8264;48.510;8.872;2023-02-26T02:20:56;3.60;;;1.85;;
16310;SDS011;8264;48.510;8.872;2023-02-26T02:23:31;3.50;;;1.75;;
16310;SDS011;8264;48.510;8.872;2023-02-26T02:26:18;4.25;;;1.70;;
16310;SDS011;8264;48.510;8.872;2023-02-26T02:29:22;3.55;;;1.92;;
16310;SDS011;8264;48.510;8.872;2023-02-26T02:31:55;4.45;;;2.13;;
16310;SDS011;8264;48.510;8.872;2023-02-26T02:34:24;3.58;;;1.80;;
16310;SDS011;8264;48.510;8.872;2023-02-26T02:36:54;3.42;;;1.75;;
16310;SDS011;8264;48.510;8.872;2023-02-26T02:39:24;2.60;;;2.08;;
16310;SDS011;8264;48.510;8.872;2023-02-26T02:41:53;2.25;;;1.65;;
16310;SDS011;8264;48.510;8.872;2023-02-26T02:44:23;2.85;;;1.80;;
16310;SDS011;8264;48.510;8.872;2023-02-26T02:46:51;3.75;;;1.70;;
16310;SDS011;8264;48.510;8.872;2023-02-26T02:49:22;5.22;;;1.83;;
16310;SDS011;8264;48.510;8.872;2023-02-26T02:51:51;2.55;;;1.58;;
16310;SDS011;8264;48.510;8.872;2023-02-26T02:54:21;4.32;;;1.60;;
16310;SDS011;8264;48.510;8.872;2023-02-26T02:56:50;3.13;;;1.50;;
16310;SDS011;8264;48.510;8.872;2023-02-26T02:59:21;3.60;;;1.50;;
16310;SDS011;8264;48.510;8.872;2023-02-26T03:01:49;4.22;;;1.77;;
16310;SDS011;8264;48.510;8.872;2023-02-26T03:04:18;7.47;;;1.95;;
16310;SDS011;8264;48.510;8.872;2023-02-26T03:06:46;5.35;;;2.20;;
16310;SDS011;8264;48.510;8.872;2023-02-26T03:09:14;2.60;;;1.60;;
16310;SDS011;8264;48.510;8.872;2023-02-26T03:11:41;3.40;;;2.08;;
16310;SDS011;8264;48.510;8.872;2023-02-26T03:14:07;4.30;;;1.90;;
16310;SDS011;8264;48.510;8.872;2023-02-26T03:16:40;3.20;;;1.70;;
16310;SDS011;8264;48.510;8.872;2023-02-26T03:19:14;3.38;;;1.90;;
16310;SDS011;8264;48.510;8.872;2023-02-26T03:21:48;4.45;;;1.58;;
16310;SDS011;8264;48.510;8.872;2023-02-26T03:24:17;2.35;;;1.42;;
16310;SDS011;8264;48.510;8.872;2023-02-26T03:26:55;2.22;;;1.80;;
16310;SDS011;8264;48.510;8.872;2023-02-26T03:29:26;4.47;;;1.77;;
16310;SDS011;8264;48.510;8.872;2023-02-26T03:31:57;3.53;;;1.63;;
16310;SDS011;8264;48.510;8.872;2023-02-26T03:34:26;3.88;;;1.83;;
16310;SDS011;8264;48.510;8.872;2023-02-26T03:36:56;2.13;;;1.63;;
16310;SDS011;8264;48.510;8.872;2023-02-26T03:39:27;4.70;;;1.52;;
16310;SDS011;8264;48.510;8.872;2023-02-26T03:41:57;4.20;;;1.50;;
16310;SDS011;8264;48.510;8.872;2023-02-26T03:44:28;2.88;;;1.48;;
16310;SDS011;8264;48.510;8.872;2023-02-26T03:46:58;4.07;;;1.80;;
16310;SDS011;8264;48.510;8.872;2023-02-26T03:49:27;3.50;;;1.42;;
16310;SDS011;8264;48.510;8.872;2023-02-26T03:51:57;2.88;;;1.85;;
16310;SDS011;8264;48.510;8.872;2023-02-26T03:54:26;5.00;;;1.92;;
16310;SDS011;8264;48.510;8.872;2023-02-26T03:56:53;4.35;;;1.63;;
16310;SDS011;8264;48.510;8.872;2023-02-26T03:59:20;2.15;;;1.70;;
16310;SDS011;8264;48.510;8.872;2023-02-26T04:01:48;3.67;;;1.85;;
16310;SDS011;8264;48.510;8.872;2023-02-26T04:04:18;1.83;;;1.30;;
16310;SDS011;8264;48.510;8.872;2023-02-26T04:06:47;5.32;;;2.80;;
16310;SDS011;8264;48.510;8.872;2023-02-26T04:09:18;3.75;;;1.90;;
16310;SDS011;8264;48.510;8.872;2023-02-26T04:11:46;3.55;;;2.00;;
16310;SDS011;8264;48.510;8.872;2023-02-26T04:14:13;4.20;;;2.10;;
16310;SDS011;8264;48.510;8.872;2023-02-26T04:16:40;2.33;;;1.63;;
16310;SDS011;8264;48.510;8.872;2023-02-26T04:19:07;3.70;;;2.10;;
16310;SDS011;8264;48.510;8.872;2023-02-26T04:21:33;5.28;;;1.90;;
16310;SDS011;8264;48.510;8.872;2023-02-26T04:24:00;4.03;;;2.10;;
16310;SDS011;8264;48.510;8.872;2023-02-26T04:26:28;4.90;;;2.03;;
16310;SDS011;8264;48.510;8.872;2023-02-26T04:28:54;3.38;;;1.95;;
16310;SDS011;8264;48.510;8.872;2023-02-26T04:31:20;5.47;;;1.90;;
16310;SDS011;8264;48.510;8.872;2023-02-26T04:33:47;6.55;;;2.40;;
16310;SDS011;8264;48.510;8.872;2023-02-26T04:36:13;4.25;;;2.15;;
16310;SDS011;8264;48.510;8.872;2023-02-26T04:38:40;4.75;;;2.17;;
16310;SDS011;8264;48.510;8.872;2023-02-26T04:41:06;3.45;;;1.80;;
16310;SDS011;8264;48.510;8.872;2023-02-26T04:43:34;6.25;;;2.05;;
16310;SDS011;8264;48.510;8.872;2023-02-26T04:46:01;4.75;;;2.20;;
16310;SDS011;8264;48.510;8.872;2023-02-26T04:48:28;5.53;;;2.60;;
16310;SDS011;8264;48.510;8.872;2023-02-26T04:50:54;4.43;;;2.10;;
16310;SDS011;8264;48.510;8.872;2023-02-26T04:53:21;5.65;;;2.13;;
16310;SDS011;8264;48.510;8.872;2023-02-26T04:55:47;5.90;;;2.42;;
16310;SDS011;8264;48.510;8.872;2023-02-26T04:58:14;4.75;;;2.35;;
16310;SDS011;8264;48.510;8.872;2023-02-26T05:00:42;5.28;;;2.10;;
16310;SDS011;8264;48.510;8.872;2023-02-26T05:03:08;6.40;;;2.03;;
16310;SDS011;8264;48.510;8.872;2023-02-26T05:05:37;6.32;;;2.13;;
16310;SDS011;8264;48.510;8.872;2023-02-26T05:08:03;8.85;;;2.38;;
16310;SDS011;8264;48.510;8.872;2023-02-26T05:10:30;2.97;;;2.05;;
16310;SDS011;8264;48.510;8.872;2023-02-26T05:12:56;3.90;;;2.08;;
16310;SDS011;8264;48.510;8.872;2023-02-26T05:15:23;7.78;;;2.63;;
16310;SDS011;8264;48.510;8.872;2023-02-26T05:17:51;3.00;;;2.38;;
16310;SDS011;8264;48.510;8.872;2023-02-26T05:20:17;4.25;;;2.20;;
16310;SDS011;8264;48.510;8.872;2023-02-26T05:22:44;5.32;;;2.30;;
16310;SDS011;8264;48.510;8.872;2023-02-26T05:25:10;4.50;;;2.47;;
16310;SDS011;8264;48.510;8.872;2023-02-26T05:27:37;5.43;;;2.38;;
16310;SDS011;8264;48.510;8.872;2023-02-26T05:30:07;2.72;;;1.73;;
16310;SDS011;8264;48.510;8.872;2023-02-26T05:32:34;6.47;;;2.42;;
16310;SDS011;8264;48.510;8.872;2023-02-26T05:35:02;2.60;;;2.10;;
16310;SDS011;8264;48.510;8.872;2023-02-26T05:37:29;8.00;;;2.65;;
16310;SDS011;8264;48.510;8.872;2023-02-26T05:39:55;3.67;;;2.50;;
16310;SDS011;8264;48.510;8.872;2023-02-26T05:42:22;6.38;;;2.60;;
16310;SDS011;8264;48.510;8.872;2023-02-26T05:44:48;3.30;;;1.92;;
16310;SDS011;8264;48.510;8.872;2023-02-26T05:47:15;4.57;;;2.40;;
16310;SDS011;8264;48.510;8.872;2023-02-26T05:49:42;3.95;;;2.70;;
16310;SDS011;8264;48.510;8.872;2023-02-26T05:52:10;3.58;;;2.70;;
16310;SDS011;8264;48.510;8.872;2023-02-26T05:54:36;3.80;;;2.10;;
16310;SDS011;8264;48.510;8.872;2023-02-26T05:57:02;4.60;;;1.90;;
16310;SDS011;8264;48.510;8.872;2023-02-26T05:59:29;4.65;;;2.22;;
16310;SDS011;8264;48.510;8.872;2023-02-26T06:01:55;5.45;;;2.17;;
16310;SDS011;8264;48.510;8.872;2023-02-26T06:04:22;4.75;;;2.35;;
16310;SDS011;8264;48.510;8.872;2023-02-26T06:06:49;5.55;;;2.25;;
16310;SDS011;8264;48.510;8.872;2023-02-26T06:09:17;5.35;;;2.30;;
16310;SDS011;8264;48.510;8.872;2023-02-26T06:11:43;4.13;;;2.40;;
16310;SDS011;8264;48.510;8.872;2023-02-26T06:14:09;6.13;;;2.53;;
16310;SDS011;8264;48.510;8.872;2023-02-26T06:16:36;4.55;;;2.15;;
16310;SDS011;8264;48.510;8.872;2023-02-26T06:19:02;6.35;;;2.47;;
16310;SDS011;8264;48.510;8.872;2023-02-26T06:21:30;2.88;;;1.95;;
16310;SDS011;8264;48.510;8.872;2023-02-26T06:23:56;9.45;;;1.90;;
16310;SDS011;8264;48.510;8.872;2023-02-26T06:26:24;4.60;;;2.20;;
16310;SDS011;8264;48.510;8.872;2023-02-26T06:28:51;5.45;;;2.45;;
16310;SDS011;8264;48.510;8.872;2023-02-26T06:31:17;6.43;;;2.63;;
16310;SDS011;8264;48.510;8.872;2023-02-26T06:33:44;3.97;;;2.10;;
16310;SDS011;8264;48.510;8.872;2023-02-26T06:36:10;6.43;;;2.80;;
16310;SDS011;8264;48.510;8.872;2023-02-26T06:38:37;4.07;;;2.40;;
16310;SDS011;8264;48.510;8.872;2023-02-26T06:41:03;6.03;;;2.28;;
16310;SDS011;8264;48.510;8.872;2023-02-26T06:43:31;4.28;;;2.47;;
16310;SDS011;8264;48.510;8.872;2023-02-26T06:45:58;7.40;;;2.35;;
16310;SDS011;8264;48.510;8.872;2023-02-26T06:48:24;4.82;;;2.53;;
16310;SDS011;8264;48.510;8.872;2023-02-26T06:50:51;4.15;;;2.58;;
16310;SDS011;8264;48.510;8.872;2023-02-26T06:53:17;7.50;;;2.53;;
16310;SDS011;8264;48.510;8.872;2023-02-26T06:55:44;3.28;;;2.40;;
16310;SDS011;8264;48.510;8.872;2023-02-26T06:58:11;3.45;;;2.13;;
16310;SDS011;8264;48.510;8.872;2023-02-26T07:00:40;6.63;;;2.45;;
16310;SDS011;8264;48.510;8.872;2023-02-26T07:03:08;7.40;;;4.97;;
16310;SDS011;8264;48.510;8.872;2023-02-26T07:05:35;6.88;;;2.45;;
16310;SDS011;8264;48.510;8.872;2023-02-26T07:08:02;5.53;;;2.70;;
16310;SDS011;8264;48.510;8.872;2023-02-26T07:10:30;4.35;;;2.58;;
16310;SDS011;8264;48.510;8.872;2023-02-26T07:12:57;6.95;;;2.38;;
16310;SDS011;8264;48.510;8.872;2023-02-26T07:15:23;6.28;;;3.28;;
16310;SDS011;8264;48.510;8.872;2023-02-26T07:17:51;6.45;;;2.65;;
16310;SDS011;8264;48.510;8.872;2023-02-26T07:20:18;5.88;;;2.58;;
16310;SDS011;8264;48.510;8.872;2023-02-26T07:22:46;4.72;;;2.60;;
16310;SDS011;8264;48.510;8.872;2023-02-26T07:25:13;7.63;;;2.75;;
16310;SDS011;8264;48.510;8.872;2023-02-26T07:27:40;6.22;;;2.47;;
16310;SDS011;8264;48.510;8.872;2023-02-26T07:30:07;3.28;;;2.30;;
16310;SDS011;8264;48.510;8.872;2023-02-26T07:32:34;5.15;;;2.67;;
16310;SDS011;8264;48.510;8.872;2023-02-26T07:35:03;2.90;;;2.30;;
16310;SDS011;8264;48.510;8.872;2023-02-26T07:37:30;7.97;;;2.95;;
16310;SDS011;8264;48.510;8.872;2023-02-26T07:39:56;4.80;;;2.45;;
16310;SDS011;8264;48.510;8.872;2023-02-26T07:42:23;6.03;;;3.13;;
16310;SDS011;8264;48.510;8.872;2023-02-26T07:44:49;4.10;;;2.75;;
16310;SDS011;8264;48.510;8.872;2023-02-26T07:47:16;6.35;;;2.50;;
16310;SDS011;8264;48.510;8.872;2023-02-26T07:49:42;4.15;;;2.40;;
16310;SDS011;8264;48.510;8.872;2023-02-26T07:52:10;10.93;;;3.50;;
16310;SDS011;8264;48.510;8.872;2023-02-26T07:54:37;4.38;;;2.40;;
16310;SDS011;8264;48.510;8.872;2023-02-26T07:57:03;2.90;;;1.83;;
16310;SDS011;8264;48.510;8.872;2023-02-26T07:59:30;3.80;;;2.10;;
16310;SDS011;8264;48.510;8.872;2023-02-26T08:01:56;4.07;;;2.30;;
16310;SDS011;8264;48.510;8.872;2023-02-26T08:04:23;6.30;;;2.63;;
16310;SDS011;8264;48.510;8.872;2023-02-26T08:06:49;3.67;;;1.85;;
16310;SDS011;8264;48.510;8.872;2023-02-26T08:09:19;3.92;;;2.00;;
16310;SDS011;8264;48.510;8.872;2023-02-26T08:11:46;2.40;;;2.00;;
16310;SDS011;8264;48.510;8.872;2023-02-26T08:14:13;4.75;;;1.90;;
16310;SDS011;8264;48.510;8.872;2023-02-26T08:16:39;3.20;;;2.10;;
16310;SDS011;8264;48.510;8.872;2023-02-26T08:19:06;3.72;;;2.33;;
16310;SDS011;8264;48.510;8.872;2023-02-26T08:21:32;7.00;;;2.03;;
16310;SDS011;8264;48.510;8.872;2023-02-26T08:23:59;2.53;;;1.52;;
16310;SDS011;8264;48.510;8.872;2023-02-26T08:26:27;4.63;;;1.60;;
16310;SDS011;8264;48.510;8.872;2023-02-26T08:28:53;5.28;;;1.92;;
16310;SDS011;8264;48.510;8.872;2023-02-26T08:31:20;3.92;;;2.03;;
16310;SDS011;8264;48.510;8.872;2023-02-26T08:33:46;2.78;;;1.98;;
16310;SDS011;8264;48.510;8.872;2023-02-26T08:36:13;3.38;;;1.98;;
16310;SDS011;8264;48.510;8.872;2023-02-26T08:38:39;5.10;;;2.40;;
16310;SDS011;8264;48.510;8.872;2023-02-26T08:41:06;5.00;;;1.90;;
16310;SDS011;8264;48.510;8.872;2023-02-26T08:43:34;3.05;;;1.92;;
16310;SDS011;8264;48.510;8.872;2023-02-26T08:46:01;5.00;;;1.58;;
16310;SDS011;8264;48.510;8.872;2023-02-26T08:48:28;5.70;;;1.98;;
16310;SDS011;8264;48.510;8.872;2023-02-26T08:50:54;2.13;;;1.35;;
16310;SDS011;8264;48.510;8.872;2023-02-26T08:53:21;3.33;;;1.58;;
16310;SDS011;8264;48.510;8.872;2023-02-26T08:55:47;3.85;;;1.30;;
16310;SDS011;8264;48.510;8.872;2023-02-26T08:58:14;4.18;;;1.67;;
16310;SDS011;8264;48.510;8.872;2023-02-26T09:00:42;3.15;;;1.85;;
16310;SDS011;8264;48.510;8.872;2023-02-26T09:03:09;1.65;;;1.33;;
16310;SDS011;8264;48.510;8.872;2023-02-26T09:05:36;4.75;;;1.92;;
16310;SDS011;8264;48.510;8.872;2023-02-26T09:08:02;6.30;;;1.77;;
16310;SDS011;8264;48.510;8.872;2023-02-26T09:10:29;3.42;;;1.52;;
16310;SDS011;8264;48.510;8.872;2023-02-26T09:12:55;3.00;;;1.80;;
16310;SDS011;8264;48.510;8.872;2023-02-26T09:15:22;3.28;;;1.75;;
16310;SDS011;8264;48.510;8.872;2023-02-26T09:17:50;1.58;;;1.48;;
16310;SDS011;8264;48.510;8.872;2023-02-26T09:20:16;6.53;;;1.98;;
16310;SDS011;8264;48.510;8.872;2023-02-26T09:22:43;2.70;;;1.23;;
16310;SDS011;8264;48.510;8.872;2023-02-26T09:25:09;4.93;;;1.40;;
16310;SDS011;8264;48.510;8.872;2023-02-26T09:27:36;1.10;;;0.95;;
16310;SDS011;8264;48.510;8.872;2023-02-26T09:30:03;3.28;;;1.63;;
16310;SDS011;8264;48.510;8.872;2023-02-26T09:32:30;2.88;;;1.65;;
16310;SDS011;8264;48.510;8.872;2023-02-26T09:34:58;2.58;;;1.50;;
16310;SDS011;8264;48.510;8.872;2023-02-26T09:37:25;3.95;;;1.52;;
16310;SDS011;8264;48.510;8.872;2023-02-26T09:39:51;3.97;;;1.58;;
16310;SDS011;8264;48.510;8.872;2023-02-26T09:42:21;5.32;;;1.55;;
16310;SDS011;8264;48.510;8.872;2023-02-26T09:44:53;4.43;;;1.92;;
16310;SDS011;8264;48.510;8.872;2023-02-26T09:47:24;4.40;;;1.60;;
16310;SDS011;8264;48.510;8.872;2023-02-26T09:49:53;3.17;;;1.52;;
16310;SDS011;8264;48.510;8.872;2023-02-26T09:52:24;2.30;;;1.40;;
16310;SDS011;8264;48.510;8.872;2023-02-26T09:54:55;2.63;;;1.45;;
16310;SDS011;8264;48.510;8.872;2023-02-26T09:57:25;2.13;;;1.50;;
16310;SDS011;8264;48.510;8.872;2023-02-26T09:59:54;2.47;;;1.75;;
16310;SDS011;8264;48.510;8.872;2023-02-26T10:02:23;1.92;;;1.50;;
16310;SDS011;8264;48.510;8.872;2023-02-26T10:04:59;2.97;;;1.20;;
16310;SDS011;8264;48.510;8.872;2023-02-26T10:07:37;3.13;;;1.60;;
16310;SDS011;8264;48.510;8.872;2023-02-26T10:10:13;2.53;;;1.33;;
16310;SDS011;8264;48.510;8.872;2023-02-26T10:12:43;1.70;;;1.10;;
16310;SDS011;8264;48.510;8.872;2023-02-26T10:15:11;3.92;;;1.50;;
16310;SDS011;8264;48.510;8.872;2023-02-26T10:17:41;3.13;;;1.48;;
16310;SDS011;8264;48.510;8.872;2023-02-26T10:20:17;4.32;;;1.88;;
16310;SDS011;8264;48.510;8.872;2023-02-26T10:22:49;2.25;;;1.98;;
16310;SDS011;8264;48.510;8.872;2023-02-26T10:25:21;2.95;;;1.70;;
16310;SDS011;8264;48.510;8.872;2023-02-26T10:27:52;1.70;;;1.50;;
16310;SDS011;8264;48.510;8.872;2023-02-26T10:30:26;3.90;;;1.40;;
16310;SDS011;8264;48.510;8.872;2023-02-26T10:32:57;2.72;;;1.60;;
16310;SDS011;8264;48.510;8.872;2023-02-26T10:35:28;2.25;;;1.45;;
16310;SDS011;8264;48.510;8.872;2023-02-26T10:38:00;1.65;;;1.50;;
16310;SDS011;8264;48.510;8.872;2023-02-26T10:40:29;4.47;;;1.67;;
16310;SDS011;8264;48.510;8.872;2023-02-26T10:42:59;2.60;;;1.67;;
16310;SDS011;8264;48.510;8.872;2023-02-26T10:45:36;3.67;;;2.00;;
16310;SDS011;8264;48.510;8.872;2023-02-26T10:48:13;3.25;;;1.75;;
16310;SDS011;8264;48.510;8.872;2023-02-26T10:50:49;4.30;;;2.10;;
16310;SDS011;8264;48.510;8.872;2023-02-26T10:53:19;2.45;;;1.80;;
16310;SDS011;8264;48.510;8.872;2023-02-26T10:55:46;3.28;;;2.00;;
16310;SDS011;8264;48.510;8.872;2023-02-26T10:58:22;5.00;;;2.10;;
16310;SDS011;8264;48.510;8.872;2023-02-26T11:00:50;3.70;;;1.88;;
16310;SDS011;8264;48.510;8.872;2023-02-26T11:03:19;3.53;;;1.45;;
16310;SDS011;8264;48.510;8.872;2023-02-26T11:05:46;4.60;;;1.60;;
16310;SDS011;8264;48.510;8.872;2023-02-26T11:08:14;4.88;;;1.70;;
16310;SDS011;8264;48.510;8.872;2023-02-26T11:10:46;1.75;;;1.60;;
16310;SDS011;8264;48.510;8.872;2023-02-26T11:13:15;1.50;;;1.40;;
16310;SDS011;8264;48.510;8.872;2023-02-26T11:15:41;0.95;;;0.88;;
16310;SDS011;8264;48.510;8.872;2023-02-26T11:18:11;1.63;;;1.42;;
16310;SDS011;8264;48.510;8.872;2023-02-26T11:20:41;3.43;;;1.63;;
16310;SDS011;8264;48.510;8.872;2023-02-26T11:23:10;3.35;;;1.33;;
16310;SDS011;8264;48.510;8.872;2023-02-26T11:25:38;1.90;;;1.33;;
16310;SDS011;8264;48.510;8.872;2023-02-26T11:28:09;2.10;;;1.33;;
16310;SDS011;8264;48.510;8.872;2023-02-26T11:30:45;1.73;;;1.30;;
16310;SDS011;8264;48.510;8.872;2023-02-26T11:33:15;4.63;;;1.85;;
16310;SDS011;8264;48.510;8.872;2023-02-26T11:35:43;3.33;;;1.40;;
16310;SDS011;8264;48.510;8.872;2023-02-26T11:38:13;1.63;;;1.17;;
16310;SDS011;8264;48.510;8.872;2023-02-26T11:40:44;2.40;;;1.27;;
16310;SDS011;8264;48.510;8.872;2023-02-26T11:43:14;1.75;;;1.30;;
16310;SDS011;8264;48.510;8.872;2023-02-26T11:45:43;2.70;;;1.52;;
16310;SDS011;8264;48.510;8.872;2023-02-26T11:48:12;2.53;;;1.60;;
16310;SDS011;8264;48.510;8.872;2023-02-26T11:50:42;3.35;;;1.80;;
16310;SDS011;8264;48.510;8.872;2023-02-26T11:53:15;3.03;;;1.50;;
16310;SDS011;8264;48.510;8.872;2023-02-26T11:55:43;1.83;;;1.40;;
16310;SDS011;8264;48.510;8.872;2023-02-26T11:58:17;2.00;;;1.52;;
16310;SDS011;8264;48.510;8.872;2023-02-26T12:00:45;2.40;;;1.55;;
16310;SDS011;8264;48.510;8.872;2023-02-26T12:03:15;1.55;;;0.98;;
16310;SDS011;8264;48.510;8.872;2023-02-26T12:05:43;3.17;;;1.60;;
16310;SDS011;8264;48.510;8.872;2023-02-26T12:08:12;3.35;;;1.65;;
16310;SDS011;8264;48.510;8.872;2023-02-26T12:10:44;1.33;;;1.08;;
16310;SDS011;8264;48.510;8.872;2023-02-26T12:13:17;1.30;;;1.20;;
16310;SDS011;8264;48.510;8.872;2023-02-26T12:15:50;1.75;;;1.60;;
16310;SDS011;8264;48.510;8.872;2023-02-26T12:18:36;2.30;;;1.20;;
16310;SDS011;8264;48.510;8.872;2023-02-26T12:21:16;1.45;;;1.15;;
16310;SDS011;8264;48.510;8.872;2023-02-26T12:26:46;1.85;;;1.45;;
16310;SDS011;8264;48.510;8.872;2023-02-26T12:29:22;1.60;;;1.42;;
16310;SDS011;8264;48.510;8.872;2023-02-26T12:32:05;3.97;;;1.50;;
16310;SDS011;8264;48.510;8.872;2023-02-26T12:34:45;1.60;;;1.30;;
16310;SDS011;8264;48.510;8.872;2023-02-26T12:40:14;3.10;;;1.38;;
16310;SDS011;8264;48.510;8.872;2023-02-26T12:42:49;1.63;;;1.33;;
16310;SDS011;8264;48.510;8.872;2023-02-26T12:45:27;1.67;;;1.27;;
16310;SDS011;8264;48.510;8.872;2023-02-26T12:48:07;1.73;;;1.60;;
16310;SDS011;8264;48.510;8.872;2023-02-26T12:50:53;2.37;;;1.10;;
16310;SDS011;8264;48.510;8.872;2023-02-26T12:53:47;2.05;;;1.30;;
16310;SDS011;8264;48.510;8.872;2023-02-26T12:56:32;1.30;;;1.10;;
16310;SDS011;8264;48.510;8.872;2023-02-26T12:59:12;2.05;;;1.48;;
16310;SDS011;8264;48.510;8.872;2023-02-26T13:01:52;1.98;;;1.25;;
16310;SDS011;8264;48.510;8.872;2023-02-26T13:04:33;1.38;;;1.20;;
16310;SDS011;8264;48.510;8.872;2023-02-26T13:07:20;1.75;;;1.20;;
16310;SDS011;8264;48.510;8.872;2023-02-26T13:09:56;1.73;;;1.35;;
16310;SDS011;8264;48.510;8.872;2023-02-26T13:12:32;1.45;;;1.10;;
16310;SDS011;8264;48.510;8.872;2023-02-26T13:15:09;1.52;;;1.42;;
16310;SDS011;8264;48.510;8.872;2023-02-26T13:17:48;1.50;;;1.07;;
16310;SDS011;8264;48.510;8.872;2023-02-26T13:20:21;3.90;;;1.27;;
16310;SDS011;8264;48.510;8.872;2023-02-26T13:22:51;1.77;;;1.20;;
16310;SDS011;8264;48.510;8.872;2023-02-26T13:25:24;1.60;;;1.50;;
16310;SDS011;8264;48.510;8.872;2023-02-26T13:27:56;1.63;;;1.30;;
16310;SDS011;8264;48.510;8.872;2023-02-26T13:30:26;2.20;;;1.40;;
16310;SDS011;8264;48.510;8.872;2023-02-26T13:32:56;1.73;;;1.38;;
16310;SDS011;8264;48.510;8.872;2023-02-26T13:35:25;2.00;;;1.23;;
16310;SDS011;8264;48.510;8.872;2023-02-26T13:37:54;1.63;;;1.42;;
16310;SDS011;8264;48.510;8.872;2023-02-26T13:43:15;2.90;;;1.65;;
16310;SDS011;8264;48.510;8.872;2023-02-26T13:45:51;1.38;;;1.27;;
16310;SDS011;8264;48.510;8.872;2023-02-26T13:48:26;1.25;;;1.08;;
16310;SDS011;8264;48.510;8.872;2023-02-26T13:50:59;1.60;;;1.20;;
16310;SDS011;8264;48.510;8.872;2023-02-26T13:53:35;1.75;;;1.30;;
16310;SDS011;8264;48.510;8.872;2023-02-26T13:56:12;1.75;;;1.20;;
16310;SDS011;8264;48.510;8.872;2023-02-26T13:58:41;1.50;;;1.20;;
16310;SDS011;8264;48.510;8.872;2023-02-26T14:01:12;1.88;;;1.20;;
16310;SDS011;8264;48.510;8.872;2023-02-26T14:03:44;1.88;;;1.27;;
16310;SDS011;8264;48.510;8.872;2023-02-26T14:06:23;1.60;;;1.37;;
16310;SDS011;8264;48.510;8.872;2023-02-26T14:09:01;1.50;;;1.30;;
16310;SDS011;8264;48.510;8.872;2023-02-26T14:11:36;1.33;;;1.20;;
16310;SDS011;8264;48.510;8.872;2023-02-26T14:14:12;4.77;;;1.37;;
16310;SDS011;8264;48.510;8.872;2023-02-26T14:16:43;2.17;;;1.13;;
16310;SDS011;8264;48.510;8.872;2023-02-26T14:19:30;0.87;;;0.80;;
16310;SDS011;8264;48.510;8.872;2023-02-26T14:22:00;1.23;;;0.90;;
16310;SDS011;8264;48.510;8.872;2023-02-26T14:24:31;2.33;;;1.20;;
16310;SDS011;8264;48.510;8.872;2023-02-26T14:27:07;1.23;;;1.00;;
16310;SDS011;8264;48.510;8.872;2023-02-26T14:30:11;3.13;;;1.10;;
16310;SDS011;8264;48.510;8.872;2023-02-26T14:32:46;1.42;;;1.20;;
16310;SDS011;8264;48.510;8.872;2023-02-26T14:35:18;1.80;;;1.20;;
16310;SDS011;8264;48.510;8.872;2023-02-26T14:37:48;3.23;;;0.80;;
16310;SDS011;8264;48.510;8.872;2023-02-26T14:40:19;0.80;;;0.80;;
16310;SDS011;8264;48.510;8.872;2023-02-26T14:42:50;2.20;;;1.07;;
16310;SDS011;8264;48.510;8.872;2023-02-26T14:45:24;1.37;;;1.07;;
16310;SDS011;8264;48.510;8.872;2023-02-26T14:47:54;1.10;;;1.00;;
16310;SDS011;8264;48.510;8.872;2023-02-26T14:50:22;1.70;;;1.03;;
16310;SDS011;8264;48.510;8.872;2023-02-26T14:52:51;1.10;;;1.00;;
16310;SDS011;8264;48.510;8.872;2023-02-26T14:58:23;1.23;;;0.90;;
16310;SDS011;8264;48.510;8.872;2023-02-26T15:01:00;1.20;;;1.00;;
16310;SDS011;8264;48.510;8.872;2023-02-26T15:03:38;1.00;;;0.90;;
16310;SDS011;8264;48.510;8.872;2023-02-26T15:06:21;0.80;;;0.73;;
16310;SDS011;8264;48.510;8.872;2023-02-26T15:09:00;1.70;;;0.90;;
16310;SDS011;8264;48.510;8.872;2023-02-26T15:11:39;2.73;;;0.90;;
16310;SDS011;8264;48.510;8.872;2023-02-26T15:14:26;0.90;;;0.90;;
16310;SDS011;8264;48.510;8.872;2023-02-26T15:17:05;0.93;;;0.83;;
16310;SDS011;8264;48.510;8.872;2023-02-26T15:19:40;1.37;;;0.97;;
16310;SDS011;8264;48.510;8.872;2023-02-26T15:22:20;0.40;;;0.40;;
16310;SDS011;8264;48.510;8.872;2023-02-26T15:24:54;1.10;;;1.00;;
16310;SDS011;8264;48.510;8.872;2023-02-26T15:27:21;1.67;;;1.00;;
16310;SDS011;8264;48.510;8.872;2023-02-26T15:29:47;1.67;;;1.00;;